< < Back
Terminal Aerodrome Forecast


Current Version              Previous Versions:   1  2  3  4  5  6  7  8  9  

Terminal Aerodrome Forecast

071
FTUS42 KJAX 261120
TAFSSI
TAF
KSSI 261120Z 2612/2712 14006KT P6SM SCT025
      TEMPO 2612/2613 BKN025
     FM261400 15009KT P6SM BKN035
     FM261600 15012KT P6SM SCT040
     FM262300 16007KT P6SM BKN250=



Latest METAR

N/A

USA.gov is the U.S. government's official web portal to all federal, state and local government web resources and services.